Terminal Aerodrome Forecast
Issued by NWS

Home | Current Version | Previous Version | Text Only | Print | Product List | Glossary On
Versions: 1 2 3 4 5 6 7 8 9 10 11 12 13 14 15 16 17 18 19 20 21 22 23 24 25 26 27 28
198
FTUS44 KEWX 241738
TAFSSF
TAF
KSSF 241738Z 2418/2518 13009KT P6SM SCT023 BKN035 OVC040
     FM250200 12005KT P6SM BKN015
     FM250700 14005KT 6SM BR OVC007
     FM251200 15008KT P6SM SCT010 OVC018=

USA.gov is the U.S. government's official web portal to all federal, state and local government web resources and services.